Etusivu
METAR-TAF:

METAR-TAF

Lentoasemat :

Key West, Florida, Yhdysvallat

Leveyspiiri: 24-34-46N, Pituuspiiri: 081-41-02W, korkeus merenpinnasta: 1 m

Tämänhetkinen sää

Tämä raportti tehtiin 11 minuuttia sitten, kello 16.53 UTC
Tuuli 8 kn kaakosta
Lämpötila 33°C
Kosteus 67%
Ilmanpaine 1018 hPa
Näkyvyys: 16.1 km
Hajanaisia pilviä 1800 ft:n korkeudessa

METAR: KNQX 201653Z 13008KT 10SM SCT018 33/26 A3005 RMK AO2 SLP175 T03280261

Aika: 13:04 (17:04 UTC)

Sääennuste

Ennuste voimassa 20. päivästä klo 15 UTC - 21. päivään klo 15 UTC
Tuuli 6 kn etelästä/kaakosta
Näkyvyys 10 km tai enemmän
Hajanaisia pilviä 1800 ft:n korkeudessa

TAF: KNQX 2015/2115 16006KT 9999 SCT018 QNH2997INS T33/2019Z T28/2111Z FN20027

Säähavainnot ja -ennusteet yli 4000 lentoasemalta (METAR- ja TAF-raportit).

Käytössä olevat sääasemat on merkitty karttaan keltaisilla ja punaisilla pisteillä.

Aseta hiiri pisteen päälle nähdäksesi sääaseman nimen.

Klikkaa sitten nähdäksesi säähavainnot ja -ennusteet.

Kartan vaihtaminen: klikkaa mustalla rastilla varustettuja vihreitä pisteitä, niin voit zoomata sisään; viivalla varustettua vihreää pistettä, niin voit zoomata ulos tai vihreitä nuolia, niin pääset viereisille kartoille.


METAR-TAF: